createdAt,value
2018-11-01T00:00:17.183Z,4.50
2018-11-01T00:02:46.517Z,6.43
2018-11-01T00:05:16.415Z,6.10
2018-11-01T00:07:46.105Z,3.87
2018-11-01T00:10:15.575Z,5.60
2018-11-01T00:12:45.288Z,4.20
2018-11-01T00:15:15.655Z,4.77
2018-11-01T00:17:45.048Z,5.87
2018-11-01T00:20:14.760Z,4.07
2018-11-01T00:22:44.753Z,4.17
2018-11-01T00:25:14.550Z,5.33
2018-11-01T00:27:44.355Z,7.07
2018-11-01T00:30:13.697Z,4.30
2018-11-01T00:32:43.038Z,4.53
2018-11-01T00:35:12.392Z,6.23
2018-11-01T00:37:41.774Z,5.07
2018-11-01T00:40:14.158Z,4.53
2018-11-01T00:42:44.434Z,6.20
2018-11-01T00:45:14.025Z,5.20
2018-11-01T00:47:43.680Z,5.10
2018-11-01T00:50:15.513Z,4.70
2018-11-01T00:52:45.285Z,3.43
2018-11-01T00:55:15.031Z,4.57
2018-11-01T00:57:44.607Z,4.60
2018-11-01T01:00:15.597Z,4.57
2018-11-01T01:02:45.137Z,4.07
2018-11-01T01:05:14.534Z,4.07
2018-11-01T01:07:43.892Z,2.80
2018-11-01T01:10:15.877Z,4.73
2018-11-01T01:12:46.160Z,3.67
2018-11-01T01:15:15.704Z,3.70
2018-11-01T01:17:45.068Z,3.83
2018-11-01T01:20:16.410Z,3.73
2018-11-01T01:22:46.393Z,3.10
2018-11-01T01:25:17.165Z,2.90
2018-11-01T01:27:46.769Z,3.03
2018-11-01T01:30:19.957Z,3.23
2018-11-01T01:32:49.923Z,2.60
2018-11-01T01:35:19.377Z,3.67
2018-11-01T01:37:48.738Z,3.37
2018-11-01T01:40:18.330Z,4.13
2018-11-01T01:42:51.503Z,4.90
2018-11-01T01:45:21.216Z,4.73
2018-11-01T01:47:50.583Z,3.40
2018-11-01T01:50:20.651Z,2.70
2018-11-01T01:52:50.170Z,3.53
2018-11-01T01:55:19.542Z,4.27
2018-11-01T01:57:48.947Z,4.07
2018-11-01T02:00:19.544Z,2.87
2018-11-01T02:02:50.559Z,3.20
2018-11-01T02:05:21.912Z,2.90
2018-11-01T02:07:51.222Z,4.53
2018-11-01T02:10:20.562Z,2.70
2018-11-01T02:12:49.868Z,2.30
2018-11-01T02:15:20.399Z,2.33
2018-11-01T02:17:49.750Z,2.40
2018-11-01T02:20:20.125Z,3.03
2018-11-01T02:22:49.445Z,4.43
2018-11-01T02:25:18.846Z,3.27
2018-11-01T02:27:53.569Z,2.57
2018-11-01T02:30:22.957Z,1.87
2018-11-01T02:32:52.359Z,3.07
2018-11-01T02:35:21.696Z,3.20
2018-11-01T02:37:52.085Z,2.53
2018-11-01T02:40:21.384Z,2.77
2018-11-01T02:42:50.779Z,2.47
2018-11-01T02:45:20.147Z,2.53
2018-11-01T02:47:49.495Z,1.73
2018-11-01T02:50:18.799Z,2.13
2018-11-01T02:52:48.093Z,2.47
2018-11-01T02:55:17.397Z,2.17
2018-11-01T02:57:46.671Z,3.00
2018-11-01T03:00:17.065Z,2.30
2018-11-01T03:02:46.394Z,3.00
2018-11-01T03:05:15.726Z,2.57
2018-11-01T03:07:45.052Z,4.27
2018-11-01T03:10:15.121Z,2.53
2018-11-01T03:12:44.479Z,2.17
2018-11-01T03:15:14.798Z,3.37
2018-11-01T03:17:44.245Z,3.80
2018-11-01T03:20:13.885Z,3.30
2018-11-01T03:22:43.309Z,2.07
2018-11-01T03:25:12.947Z,2.30
2018-11-01T03:27:42.354Z,2.80
2018-11-01T03:30:11.799Z,4.00
2018-11-01T03:32:41.177Z,4.70
2018-11-01T03:35:11.833Z,4.73
2018-11-01T03:37:42.016Z,3.93
2018-11-01T03:40:12.362Z,3.03
2018-11-01T03:42:42.456Z,2.50
2018-11-01T03:45:12.954Z,4.67
2018-11-01T03:47:42.998Z,2.60
2018-11-01T03:50:12.880Z,5.20
2018-11-01T03:52:42.186Z,2.30
2018-11-01T03:55:12.564Z,3.00
2018-11-01T03:57:42.597Z,2.47
2018-11-01T04:00:15.025Z,2.27
2018-11-01T04:02:46.168Z,2.37
2018-11-01T04:05:15.573Z,2.60
2018-11-01T04:07:44.919Z,2.87
2018-11-01T04:10:14.265Z,3.37
2018-11-01T04:12:43.543Z,2.37
2018-11-01T04:15:13.817Z,2.70
2018-11-01T04:17:43.256Z,2.67
2018-11-01T04:20:13.691Z,2.10
2018-11-01T04:22:43.494Z,7.90
2018-11-01T04:25:21.865Z,4.00
2018-11-01T04:27:51.289Z,2.20
2018-11-01T04:30:20.655Z,2.63
2018-11-01T04:32:50.083Z,2.07
2018-11-01T04:35:19.351Z,3.07
2018-11-01T04:37:48.673Z,3.73
2018-11-01T04:40:18.422Z,2.37
2018-11-01T04:42:47.782Z,2.93
2018-11-01T04:45:17.192Z,3.40
2018-11-01T04:47:46.575Z,2.73
2018-11-01T04:50:15.809Z,1.67
2018-11-01T04:52:45.147Z,4.40
2018-11-01T04:55:14.492Z,2.40
2018-11-01T04:57:43.849Z,3.10
2018-11-01T05:00:14.480Z,2.87
2018-11-01T05:02:44.185Z,2.90
2018-11-01T05:05:13.664Z,5.50
2018-11-01T05:07:42.808Z,4.47
2018-11-01T05:10:13.143Z,2.57
2018-11-01T05:12:42.839Z,4.27
2018-11-01T05:15:12.403Z,3.40
2018-11-01T05:17:41.613Z,2.47
2018-11-01T05:20:12.249Z,3.47
2018-11-01T05:22:41.682Z,4.00
2018-11-01T05:25:12.160Z,3.67
2018-11-01T05:27:42.242Z,5.17
2018-11-01T05:30:13.152Z,5.70
2018-11-01T05:32:42.885Z,4.10
2018-11-01T05:35:12.290Z,3.63
2018-11-01T05:37:41.627Z,4.83
2018-11-01T05:40:12.032Z,3.60
2018-11-01T05:42:42.504Z,4.30
2018-11-01T05:45:12.054Z,4.37
2018-11-01T05:47:41.432Z,3.40
2018-11-01T05:50:10.822Z,3.97
2018-11-01T05:52:40.157Z,3.07
2018-11-01T05:55:10.014Z,2.67
2018-11-01T05:57:39.414Z,5.57
2018-11-01T06:00:12.489Z,3.60
2018-11-01T06:02:45.924Z,3.93
2018-11-01T06:05:15.476Z,4.17
2018-11-01T06:08:04.561Z,3.97
2018-11-01T06:10:34.046Z,3.47
2018-11-01T06:13:03.626Z,3.40
2018-11-01T06:15:32.989Z,4.67
2018-11-01T06:18:02.357Z,3.87
2018-11-01T06:20:31.748Z,4.43
2018-11-01T06:23:01.273Z,3.77
2018-11-01T06:25:30.640Z,4.57
2018-11-01T06:28:00.164Z,5.33
2018-11-01T06:30:29.573Z,3.93
2018-11-01T06:32:59.390Z,3.30
2018-11-01T06:35:33.077Z,5.47
2018-11-01T06:38:02.374Z,3.17
2018-11-01T06:40:31.716Z,2.97
2018-11-01T06:43:01.073Z,7.23
2018-11-01T06:45:30.426Z,4.03
2018-11-01T06:47:59.824Z,3.83
2018-11-01T06:50:29.193Z,4.80
2018-11-01T06:52:58.487Z,2.67
2018-11-01T06:55:27.781Z,6.67
2018-11-01T06:57:57.090Z,4.80
2018-11-01T07:00:26.434Z,4.10
2018-11-01T07:02:57.801Z,4.17
2018-11-01T07:05:29.665Z,4.87
2018-11-01T07:07:59.033Z,5.73
2018-11-01T07:10:28.344Z,4.03
2018-11-01T07:12:57.770Z,5.17
2018-11-01T07:15:27.106Z,3.57
2018-11-01T07:17:56.477Z,3.73
2018-11-01T07:20:25.979Z,3.87
2018-11-01T07:22:55.445Z,3.53
2018-11-01T07:25:24.891Z,6.60
2018-11-01T07:27:55.651Z,3.90
2018-11-01T07:30:25.090Z,3.53
2018-11-01T07:32:54.476Z,2.93
2018-11-01T07:35:23.770Z,5.17
2018-11-01T07:37:54.309Z,4.47
2018-11-01T07:40:23.656Z,7.53
2018-11-01T07:42:52.940Z,5.43
2018-11-01T07:45:22.476Z,5.57
2018-11-01T07:47:52.859Z,7.70
2018-11-01T07:50:22.241Z,6.40
2018-11-01T07:52:51.658Z,14.97
2018-11-01T07:55:20.950Z,16.47
2018-11-01T07:57:50.322Z,7.27
2018-11-01T08:00:19.669Z,9.33
2018-11-01T08:02:50.049Z,7.40
2018-11-01T08:05:19.333Z,5.10
2018-11-01T08:07:48.751Z,7.47
2018-11-01T08:10:19.066Z,8.53
2018-11-01T08:12:48.869Z,4.53
2018-11-01T08:15:20.298Z,5.43
2018-11-01T08:17:49.645Z,5.20
2018-11-01T08:20:19.232Z,6.40
2018-11-01T08:22:48.398Z,7.47
2018-11-01T08:25:17.759Z,8.10
2018-11-01T08:27:47.179Z,6.77
2018-11-01T08:30:17.457Z,9.33
2018-11-01T08:32:46.833Z,5.53
2018-11-01T08:35:16.331Z,7.50
2018-11-01T08:37:46.089Z,3.97
2018-11-01T08:40:15.523Z,7.77
2018-11-01T08:42:44.865Z,9.97
2018-11-01T08:45:15.222Z,14.27
2018-11-01T08:47:44.659Z,11.27
2018-11-01T08:50:14.875Z,3.83
2018-11-01T08:52:44.506Z,5.20
2018-11-01T08:55:14.253Z,3.40
2018-11-01T08:57:44.602Z,7.50
2018-11-01T09:00:14.374Z,10.63
2018-11-01T09:02:44.217Z,15.97
2018-11-01T09:05:14.154Z,10.23
2018-11-01T09:07:43.699Z,8.60
2018-11-01T09:10:15.501Z,7.23
2018-11-01T09:12:45.127Z,6.30
2018-11-01T09:15:16.145Z,5.87
2018-11-01T09:17:45.638Z,5.20
2018-11-01T09:20:15.017Z,6.83
2018-11-01T09:22:52.873Z,5.63
2018-11-01T09:25:22.339Z,28.37
2018-11-01T09:27:51.700Z,46.90
2018-11-01T09:30:21.380Z,17.23
2018-11-01T09:32:50.923Z,8.37
2018-11-01T09:35:21.596Z,14.60
2018-11-01T09:37:52.938Z,9.23
2018-11-01T09:40:24.972Z,11.03
2018-11-01T09:42:57.021Z,9.37
2018-11-01T09:45:26.477Z,8.80
2018-11-01T09:47:56.018Z,5.37
2018-11-01T09:50:25.428Z,10.50
2018-11-01T09:52:54.787Z,7.33
2018-11-01T09:55:24.280Z,14.07
2018-11-01T09:57:56.482Z,7.77
2018-11-01T10:00:28.224Z,6.60
2018-11-01T10:03:01.027Z,10.03
2018-11-01T10:05:32.558Z,9.53
2018-11-01T10:08:02.925Z,7.47
2018-11-01T10:10:32.440Z,5.57
2018-11-01T10:13:04.770Z,7.30
2018-11-01T10:15:42.161Z,6.70
2018-11-01T10:18:12.178Z,19.83
2018-11-01T10:20:42.938Z,12.73
2018-11-01T10:23:15.112Z,10.80
2018-11-01T10:25:46.289Z,6.23
2018-11-01T10:28:16.922Z,10.43
2018-11-01T10:30:46.380Z,7.37
2018-11-01T10:33:16.949Z,8.53
2018-11-01T10:35:49.689Z,5.80
2018-11-01T10:38:21.729Z,16.30
2018-11-01T10:40:54.058Z,12.77
2018-11-01T10:43:25.674Z,23.43
2018-11-01T10:45:56.692Z,12.40
2018-11-01T10:48:26.155Z,12.07
2018-11-01T10:50:56.738Z,10.53
2018-11-01T10:53:28.944Z,8.77
2018-11-01T10:56:00.903Z,5.23
2018-11-01T10:58:32.324Z,7.33
2018-11-01T11:01:06.988Z,5.20
2018-11-01T11:03:36.305Z,6.83
2018-11-01T11:06:06.795Z,7.97
2018-11-01T11:08:36.161Z,5.83
2018-11-01T11:11:05.537Z,7.30
2018-11-01T11:13:34.911Z,7.43
2018-11-01T11:16:04.246Z,6.23
2018-11-01T11:18:33.627Z,8.10
2018-11-01T11:21:03.292Z,9.90
2018-11-01T11:23:32.478Z,7.83
2018-11-01T11:26:01.966Z,7.20
2018-11-01T11:28:33.389Z,5.23
2018-11-01T11:31:02.811Z,5.43
2018-11-01T11:33:32.413Z,6.83
2018-11-01T11:36:01.753Z,5.90
2018-11-01T11:38:33.205Z,4.37
2018-11-01T11:41:02.603Z,8.20
2018-11-01T11:43:33.039Z,5.40
2018-11-01T11:46:02.377Z,5.97
2018-11-01T11:48:31.682Z,4.17
2018-11-01T11:51:00.992Z,8.60
2018-11-01T11:53:30.329Z,4.63
2018-11-01T11:55:59.700Z,5.83
2018-11-01T11:58:29.081Z,5.03
2018-11-01T12:00:58.593Z,5.00
2018-11-01T12:03:27.994Z,8.13
2018-11-01T12:05:57.430Z,5.70
2018-11-01T12:08:26.833Z,3.77
2018-11-01T12:10:56.192Z,6.77
2018-11-01T12:13:25.784Z,8.00
2018-11-01T12:15:55.206Z,6.33
2018-11-01T12:18:24.564Z,6.93
2018-11-01T12:20:53.954Z,6.10
2018-11-01T12:23:25.981Z,6.30
2018-11-01T12:26:00.167Z,7.13
2018-11-01T12:28:29.669Z,4.53
2018-11-01T12:30:58.989Z,6.23
2018-11-01T12:33:28.320Z,4.90
2018-11-01T12:35:57.799Z,6.90
2018-11-01T12:38:27.169Z,5.07
2018-11-01T12:40:56.604Z,6.13
2018-11-01T12:43:26.198Z,4.57
2018-11-01T12:45:55.698Z,5.43
2018-11-01T12:48:25.099Z,6.80
2018-11-01T12:50:54.682Z,5.97
2018-11-01T12:53:24.036Z,9.33
2018-11-01T12:55:53.365Z,6.37
2018-11-01T12:58:22.647Z,4.63
2018-11-01T13:00:52.089Z,8.20
2018-11-01T13:03:21.444Z,14.90
2018-11-01T13:05:50.733Z,7.00
2018-11-01T13:08:20.086Z,4.63
2018-11-01T13:10:49.666Z,6.43
2018-11-01T13:13:18.897Z,5.73
2018-11-01T13:15:48.250Z,7.23
2018-11-01T13:18:17.583Z,5.37
2018-11-01T13:20:50.895Z,7.43
2018-11-01T13:23:20.320Z,5.97
2018-11-01T13:25:49.761Z,6.67
2018-11-01T13:28:19.167Z,5.07
2018-11-01T13:30:48.519Z,8.87
2018-11-01T13:33:17.867Z,6.70
2018-11-01T13:35:47.270Z,7.50
2018-11-01T13:38:16.595Z,5.77
2018-11-01T13:40:46.305Z,5.27
2018-11-01T13:43:15.320Z,5.67
2018-11-01T13:45:44.667Z,4.13
2018-11-01T13:48:14.170Z,4.90
2018-11-01T13:50:44.823Z,5.30
2018-11-01T13:53:14.245Z,7.53
2018-11-01T13:55:43.601Z,7.47
2018-11-01T13:58:14.010Z,5.93
2018-11-01T14:00:43.392Z,10.13
2018-11-01T14:03:19.268Z,5.47
2018-11-01T14:05:48.650Z,9.00
2018-11-01T14:08:17.961Z,9.83
2018-11-01T14:10:47.363Z,4.20
2018-11-01T14:13:16.910Z,5.57
2018-11-01T14:15:48.382Z,6.10
2018-11-01T14:18:17.712Z,6.07
2018-11-01T14:20:47.099Z,5.93
2018-11-01T14:23:16.423Z,5.83
2018-11-01T14:25:45.771Z,4.50
2018-11-01T14:28:15.202Z,6.00
2018-11-01T14:30:44.599Z,5.80
2018-11-01T14:33:13.972Z,6.33
2018-11-01T14:35:43.325Z,5.80
2018-11-01T14:38:12.724Z,5.90
2018-11-01T14:40:42.283Z,6.67
2018-11-01T14:43:11.655Z,6.63
2018-11-01T14:45:40.973Z,5.53
2018-11-01T14:48:10.390Z,9.23
2018-11-01T14:50:39.783Z,6.57
2018-11-01T14:53:09.389Z,10.03
2018-11-01T14:55:39.202Z,11.37
2018-11-01T14:58:09.102Z,12.37
2018-11-01T15:00:37.517Z,7.13
2018-11-01T15:03:07.985Z,7.63
2018-11-01T15:05:37.315Z,9.77
2018-11-01T15:08:06.746Z,13.13
2018-11-01T15:10:37.159Z,18.50
2018-11-01T15:15:44.417Z,11.03
2018-11-01T15:18:13.873Z,7.33
2018-11-01T15:20:45.911Z,25.03
2018-11-01T15:23:15.330Z,21.43
2018-11-01T15:25:44.709Z,10.27
2018-11-01T15:28:14.073Z,6.90
2018-11-01T15:30:43.460Z,5.63
2018-11-01T15:33:12.969Z,6.13
2018-11-01T15:35:42.338Z,5.43
2018-11-01T15:38:11.949Z,7.17
2018-11-01T15:40:43.521Z,8.97
2018-11-01T15:43:13.170Z,11.57
2018-11-01T15:45:47.662Z,6.20
2018-11-01T15:48:17.654Z,11.13
2018-11-01T15:50:47.154Z,10.00
2018-11-01T15:53:16.826Z,7.30
2018-11-01T15:55:46.718Z,13.57
2018-11-01T15:58:16.377Z,10.80
2018-11-01T16:00:45.929Z,6.33
2018-11-01T16:03:15.644Z,5.83
2018-11-01T16:05:45.085Z,6.27
2018-11-01T16:08:14.483Z,8.07
2018-11-01T16:10:45.971Z,6.47
2018-11-01T16:13:15.561Z,6.13
2018-11-01T16:15:45.077Z,18.53
2018-11-01T16:18:14.539Z,29.30
2018-11-01T16:20:44.099Z,10.33
2018-11-01T16:23:13.533Z,12.03
2018-11-01T16:25:42.977Z,9.27
2018-11-01T16:28:12.645Z,7.80
2018-11-01T16:30:42.030Z,10.63
2018-11-01T16:33:17.606Z,8.47
2018-11-01T16:35:47.186Z,8.37
2018-11-01T16:38:16.828Z,7.70
2018-11-01T16:40:46.509Z,8.37
2018-11-01T16:43:15.906Z,9.10
2018-11-01T16:45:45.406Z,7.37
2018-11-01T16:48:14.998Z,8.80
2018-11-01T16:50:44.499Z,9.43
2018-11-01T16:53:13.838Z,9.80
2018-11-01T16:55:43.297Z,37.90
2018-11-01T16:58:12.734Z,15.93
2018-11-01T17:00:42.374Z,7.87
2018-11-01T17:03:11.768Z,8.10
2018-11-01T17:05:41.134Z,10.43
2018-11-01T17:08:13.963Z,8.80
2018-11-01T17:10:43.495Z,7.30
2018-11-01T17:13:14.074Z,8.23
2018-11-01T17:15:44.529Z,10.47
2018-11-01T17:18:13.965Z,13.33
2018-11-01T17:20:43.425Z,13.50
2018-11-01T17:23:12.798Z,13.60
2018-11-01T17:25:44.287Z,13.60
2018-11-01T17:28:13.696Z,17.43
2018-11-01T17:30:43.194Z,13.93
2018-11-01T17:33:12.597Z,13.40
2018-11-01T17:35:42.051Z,11.97
2018-11-01T17:38:11.433Z,11.57
2018-11-01T17:40:40.778Z,13.17
2018-11-01T17:43:14.996Z,11.57
2018-11-01T17:45:45.483Z,12.80
2018-11-01T17:48:14.991Z,15.07
2018-11-01T17:50:45.410Z,8.80
2018-11-01T17:53:14.819Z,7.87
2018-11-01T17:55:44.364Z,6.57
2018-11-01T17:58:13.999Z,13.17
2018-11-01T18:00:43.462Z,8.87
2018-11-01T18:03:12.993Z,10.93
2018-11-01T18:05:48.556Z,9.87
2018-11-01T18:08:18.285Z,10.93
2018-11-01T18:10:47.872Z,10.27
2018-11-01T18:13:17.449Z,9.47
2018-11-01T18:15:46.838Z,10.93
2018-11-01T18:18:16.228Z,8.00
2018-11-01T18:20:45.897Z,9.67
2018-11-01T18:23:15.576Z,11.53
2018-11-01T18:25:48.655Z,9.57
2018-11-01T18:28:18.949Z,8.97
2018-11-01T18:30:48.344Z,11.10
2018-11-01T18:33:17.892Z,11.23
2018-11-01T18:35:47.540Z,13.43
2018-11-01T18:38:17.076Z,11.13
2018-11-01T18:40:47.461Z,9.87
2018-11-01T18:43:17.109Z,9.77
2018-11-01T18:45:46.504Z,11.87
2018-11-01T18:48:16.030Z,15.13
2018-11-01T18:50:45.407Z,11.77
2018-11-01T18:53:16.465Z,12.33
2018-11-01T18:55:46.144Z,9.10
2018-11-01T18:58:15.518Z,11.80
2018-11-01T19:00:45.203Z,15.47
2018-11-01T19:03:14.501Z,14.63
2018-11-01T19:05:44.177Z,17.40
2018-11-01T19:08:13.899Z,13.70
2018-11-01T19:10:43.475Z,13.70
2018-11-01T19:13:12.834Z,10.53
2018-11-01T19:15:42.283Z,11.63
2018-11-01T19:18:11.668Z,10.30
2018-11-01T19:20:41.050Z,10.50
2018-11-01T19:23:10.389Z,19.10
2018-11-01T19:25:39.792Z,14.53
2018-11-01T19:28:09.333Z,12.97
2018-11-01T19:30:38.966Z,14.60
2018-11-01T19:33:08.455Z,12.87
2018-11-01T19:35:37.969Z,13.50
2018-11-01T19:38:07.542Z,12.20
2018-11-01T19:40:36.931Z,12.00
2018-11-01T19:43:06.817Z,13.73
2018-11-01T19:45:36.328Z,14.90
2018-11-01T19:48:07.889Z,14.30
2018-11-01T19:50:37.269Z,13.63
2018-11-01T19:53:15.372Z,14.70
2018-11-01T19:55:46.140Z,15.10
2018-11-01T19:58:15.567Z,15.20
2018-11-01T20:00:45.282Z,14.57
2018-11-01T20:03:14.718Z,13.87
2018-11-01T20:05:44.118Z,14.53
2018-11-01T20:08:14.043Z,14.83
2018-11-01T20:10:43.689Z,13.53
2018-11-01T20:13:13.450Z,12.80
2018-11-01T20:15:42.893Z,13.00
2018-11-01T20:18:12.359Z,15.50
2018-11-01T20:20:41.854Z,13.80
2018-11-01T20:23:11.451Z,14.63
2018-11-01T20:25:44.963Z,13.33
2018-11-01T20:28:16.318Z,13.80
2018-11-01T20:30:45.646Z,14.07
2018-11-01T20:33:14.957Z,13.93
2018-11-01T20:35:45.093Z,13.07
2018-11-01T20:38:14.480Z,13.07
2018-11-01T20:40:43.979Z,12.73
2018-11-01T20:43:18.873Z,12.90
2018-11-01T20:45:48.289Z,11.17
2018-11-01T20:48:17.787Z,12.40
2018-11-01T20:50:47.374Z,12.90
2018-11-01T20:53:16.830Z,12.87
2018-11-01T20:55:46.275Z,13.00
2018-11-01T20:58:16.888Z,13.33
2018-11-01T21:00:46.483Z,12.63
2018-11-01T21:03:15.864Z,11.97
2018-11-01T21:05:46.007Z,11.80
2018-11-01T21:08:17.852Z,12.73
2018-11-01T21:10:47.157Z,11.33
2018-11-01T21:13:21.042Z,13.67
2018-11-01T21:15:50.370Z,11.33
2018-11-01T21:18:19.786Z,10.83
2018-11-01T21:20:49.187Z,10.03
2018-11-01T21:23:20.641Z,11.70
2018-11-01T21:25:50.228Z,9.77
2018-11-01T21:28:19.595Z,10.30
2018-11-01T21:30:49.197Z,8.70
2018-11-01T21:33:18.797Z,9.73
2018-11-01T21:35:48.284Z,8.53
2018-11-01T21:38:17.525Z,8.70
2018-11-01T21:40:47.128Z,8.60
2018-11-01T21:43:16.461Z,9.40
2018-11-01T21:45:45.818Z,7.70
2018-11-01T21:48:15.239Z,10.57
2018-11-01T21:50:51.013Z,8.43
2018-11-01T21:53:20.555Z,9.83
2018-11-01T21:55:49.890Z,7.93
2018-11-01T21:58:19.343Z,8.23
2018-11-01T22:00:48.639Z,7.97
2018-11-01T22:03:18.004Z,7.77
2018-11-01T22:05:47.369Z,6.80
2018-11-01T22:08:16.808Z,7.37
2018-11-01T22:10:47.151Z,7.20
2018-11-01T22:13:16.540Z,7.07
2018-11-01T22:15:46.092Z,7.30
2018-11-01T22:18:15.776Z,7.03
2018-11-01T22:20:45.236Z,7.27
2018-11-01T22:23:14.662Z,8.57
2018-11-01T22:25:44.154Z,6.53
2018-11-01T22:28:13.674Z,9.03
2018-11-01T22:30:42.946Z,6.87
2018-11-01T22:33:12.387Z,8.13
2018-11-01T22:35:41.800Z,9.10
2018-11-01T22:38:11.336Z,8.87
2018-11-01T22:40:40.838Z,8.67
2018-11-01T22:43:10.242Z,9.03
2018-11-01T22:45:39.572Z,9.40
2018-11-01T22:48:09.040Z,8.80
2018-11-01T22:50:38.405Z,8.83
2018-11-01T22:53:07.711Z,8.57
2018-11-01T22:55:37.058Z,9.43
2018-11-01T22:58:08.605Z,8.37
2018-11-01T23:00:42.331Z,12.77
2018-11-01T23:03:12.194Z,8.33
2018-11-01T23:05:41.525Z,8.93
2018-11-01T23:08:10.941Z,7.87
2018-11-01T23:10:40.322Z,9.73
2018-11-01T23:13:09.699Z,10.90
2018-11-01T23:15:39.043Z,7.90
2018-11-01T23:18:08.400Z,8.70
2018-11-01T23:20:37.732Z,8.87
2018-11-01T23:23:07.184Z,8.90
2018-11-01T23:25:36.538Z,8.80
2018-11-01T23:28:06.029Z,8.73
2018-11-01T23:30:35.499Z,9.70
2018-11-01T23:33:04.865Z,8.93
2018-11-01T23:35:34.193Z,9.20
2018-11-01T23:38:08.835Z,8.90
2018-11-01T23:40:43.715Z,9.27
2018-11-01T23:43:18.391Z,9.00
2018-11-01T23:45:53.053Z,9.57
2018-11-01T23:48:21.512Z,9.27
2018-11-01T23:50:59.485Z,8.67
2018-11-01T23:53:30.499Z,9.13
2018-11-01T23:55:59.866Z,12.60
2018-11-01T23:58:29.466Z,9.33
